sensor_id;sensor_type;location;lat;lon;timestamp;temperature;humidity
13328;DHT22;6733;51.044;3.746;2022-08-11T00:01:18;21.40;99.90
13328;DHT22;6733;51.044;3.746;2022-08-11T00:03:47;21.30;99.90
13328;DHT22;6733;51.044;3.746;2022-08-11T00:06:35;21.30;99.90
13328;DHT22;6733;51.044;3.746;2022-08-11T00:09:06;21.30;99.90
13328;DHT22;6733;51.044;3.746;2022-08-11T00:14:16;21.20;99.90
13328;DHT22;6733;51.044;3.746;2022-08-11T00:16:52;21.20;99.90
13328;DHT22;6733;51.044;3.746;2022-08-11T00:19:21;21.20;99.90
13328;DHT22;6733;51.044;3.746;2022-08-11T00:21:48;21.10;99.90
13328;DHT22;6733;51.044;3.746;2022-08-11T00:24:15;21.10;99.90
13328;DHT22;6733;51.044;3.746;2022-08-11T00:26:47;21.10;99.90
13328;DHT22;6733;51.044;3.746;2022-08-11T00:29:14;21.10;99.90
13328;DHT22;6733;51.044;3.746;2022-08-11T00:31:50;21.00;99.90
13328;DHT22;6733;51.044;3.746;2022-08-11T00:34:23;21.00;99.90
13328;DHT22;6733;51.044;3.746;2022-08-11T00:36:56;21.00;99.90
13328;DHT22;6733;51.044;3.746;2022-08-11T00:39:25;21.00;99.90
13328;DHT22;6733;51.044;3.746;2022-08-11T00:50:21;20.90;99.90
13328;DHT22;6733;51.044;3.746;2022-08-11T01:01:25;20.80;99.90
13328;DHT22;6733;51.044;3.746;2022-08-11T01:12:52;20.70;99.90
13328;DHT22;6733;51.044;3.746;2022-08-11T01:29:40;20.60;99.90
13328;DHT22;6733;51.044;3.746;2022-08-11T01:35:39;20.40;99.90
13328;DHT22;6733;51.044;3.746;2022-08-11T01:44:34;20.40;99.90
13328;DHT22;6733;51.044;3.746;2022-08-11T01:55:59;20.30;99.90
13328;DHT22;6733;51.044;3.746;2022-08-11T01:58:37;20.20;99.90
13328;DHT22;6733;51.044;3.746;2022-08-11T02:04:28;20.20;99.90
13328;DHT22;6733;51.044;3.746;2022-08-11T02:12:53;20.10;99.90
13328;DHT22;6733;51.044;3.746;2022-08-11T02:15:27;20.00;99.90
13328;DHT22;6733;51.044;3.746;2022-08-11T02:18:19;20.00;99.90
13328;DHT22;6733;51.044;3.746;2022-08-11T02:21:02;20.00;99.90
13328;DHT22;6733;51.044;3.746;2022-08-11T02:23:58;20.00;99.90
13328;DHT22;6733;51.044;3.746;2022-08-11T02:26:43;20.00;99.90
13328;DHT22;6733;51.044;3.746;2022-08-11T02:29:19;20.00;99.90
13328;DHT22;6733;51.044;3.746;2022-08-11T02:35:01;19.90;99.90
13328;DHT22;6733;51.044;3.746;2022-08-11T02:40:39;19.80;99.90
13328;DHT22;6733;51.044;3.746;2022-08-11T02:43:17;19.70;99.90
13328;DHT22;6733;51.044;3.746;2022-08-11T02:46:18;19.70;99.90
13328;DHT22;6733;51.044;3.746;2022-08-11T02:57:05;19.60;99.90
13328;DHT22;6733;51.044;3.746;2022-08-11T03:11:11;19.50;99.90
13328;DHT22;6733;51.044;3.746;2022-08-11T03:22:37;19.50;99.90
13328;DHT22;6733;51.044;3.746;2022-08-11T03:25:23;19.40;99.90
13328;DHT22;6733;51.044;3.746;2022-08-11T03:28:08;19.50;99.90
13328;DHT22;6733;51.044;3.746;2022-08-11T03:33:28;19.40;99.90
13328;DHT22;6733;51.044;3.746;2022-08-11T03:36:24;19.40;99.90
13328;DHT22;6733;51.044;3.746;2022-08-11T03:41:44;19.30;99.90
13328;DHT22;6733;51.044;3.746;2022-08-11T03:52:52;19.20;99.90
13328;DHT22;6733;51.044;3.746;2022-08-11T04:15:19;18.80;99.90
13328;DHT22;6733;51.044;3.746;2022-08-11T04:29:56;18.70;99.90
13328;DHT22;6733;51.044;3.746;2022-08-11T04:41:31;18.60;99.90
13328;DHT22;6733;51.044;3.746;2022-08-11T05:04:55;18.70;99.90
13328;DHT22;6733;51.044;3.746;2022-08-11T05:13:32;18.80;99.90
13328;DHT22;6733;51.044;3.746;2022-08-11T05:16:29;18.80;99.90
13328;DHT22;6733;51.044;3.746;2022-08-11T05:19:18;18.80;99.90
13328;DHT22;6733;51.044;3.746;2022-08-11T05:22:07;18.80;99.90
13328;DHT22;6733;51.044;3.746;2022-08-11T05:25:13;18.80;99.90
13328;DHT22;6733;51.044;3.746;2022-08-11T05:28:05;18.90;99.90
13328;DHT22;6733;51.044;3.746;2022-08-11T05:30:59;18.90;99.90
13328;DHT22;6733;51.044;3.746;2022-08-11T05:34:22;18.90;99.90
13328;DHT22;6733;51.044;3.746;2022-08-11T05:37:09;19.00;99.90
13328;DHT22;6733;51.044;3.746;2022-08-11T05:39:44;19.00;99.90
13328;DHT22;6733;51.044;3.746;2022-08-11T05:42:31;19.10;99.90
13328;DHT22;6733;51.044;3.746;2022-08-11T05:45:17;19.20;99.90
13328;DHT22;6733;51.044;3.746;2022-08-11T05:48:03;19.30;99.90
13328;DHT22;6733;51.044;3.746;2022-08-11T05:50:57;19.30;99.90
13328;DHT22;6733;51.044;3.746;2022-08-11T05:53:52;19.40;99.90
13328;DHT22;6733;51.044;3.746;2022-08-11T05:56:48;19.40;99.90
13328;DHT22;6733;51.044;3.746;2022-08-11T05:59:17;19.40;99.90
13328;DHT22;6733;51.044;3.746;2022-08-11T06:01:44;19.50;99.90
13328;DHT22;6733;51.044;3.746;2022-08-11T06:04:24;19.60;99.90
13328;DHT22;6733;51.044;3.746;2022-08-11T06:06:58;19.70;99.90
13328;DHT22;6733;51.044;3.746;2022-08-11T06:09:26;19.80;99.90
13328;DHT22;6733;51.044;3.746;2022-08-11T06:11:58;19.80;99.90
13328;DHT22;6733;51.044;3.746;2022-08-11T06:14:25;19.90;99.90
13328;DHT22;6733;51.044;3.746;2022-08-11T06:16:55;20.00;99.90
13328;DHT22;6733;51.044;3.746;2022-08-11T06:19:33;20.10;99.90
13328;DHT22;6733;51.044;3.746;2022-08-11T06:22:02;20.20;99.90
13328;DHT22;6733;51.044;3.746;2022-08-11T06:24:29;20.20;99.90
13328;DHT22;6733;51.044;3.746;2022-08-11T06:26:57;20.40;99.90
13328;DHT22;6733;51.044;3.746;2022-08-11T06:29:25;20.50;99.90
13328;DHT22;6733;51.044;3.746;2022-08-11T06:32:02;20.60;99.90
13328;DHT22;6733;51.044;3.746;2022-08-11T06:37:22;20.90;99.90
13328;DHT22;6733;51.044;3.746;2022-08-11T06:40:00;21.10;99.90
13328;DHT22;6733;51.044;3.746;2022-08-11T06:43:10;21.20;99.90
13328;DHT22;6733;51.044;3.746;2022-08-11T06:45:54;21.30;99.90
13328;DHT22;6733;51.044;3.746;2022-08-11T06:48:23;21.50;99.90
13328;DHT22;6733;51.044;3.746;2022-08-11T06:50:58;21.60;99.90
13328;DHT22;6733;51.044;3.746;2022-08-11T06:53:59;21.80;99.90
13328;DHT22;6733;51.044;3.746;2022-08-11T06:56:30;21.80;99.90
13328;DHT22;6733;51.044;3.746;2022-08-11T06:59:16;22.00;99.90
13328;DHT22;6733;51.044;3.746;2022-08-11T07:04:46;22.10;99.90
13328;DHT22;6733;51.044;3.746;2022-08-11T07:13:58;22.90;99.90
13328;DHT22;6733;51.044;3.746;2022-08-11T07:16:44;23.10;99.90
13328;DHT22;6733;51.044;3.746;2022-08-11T07:19:15;23.20;99.90
13328;DHT22;6733;51.044;3.746;2022-08-11T07:22:02;23.30;99.90
13328;DHT22;6733;51.044;3.746;2022-08-11T07:25:12;23.20;99.90
13328;DHT22;6733;51.044;3.746;2022-08-11T07:30:48;23.60;99.90
13328;DHT22;6733;51.044;3.746;2022-08-11T07:33:24;23.60;99.90
13328;DHT22;6733;51.044;3.746;2022-08-11T07:35:56;23.70;99.90
13328;DHT22;6733;51.044;3.746;2022-08-11T07:38:26;23.90;99.90
13328;DHT22;6733;51.044;3.746;2022-08-11T07:41:15;24.00;99.90
13328;DHT22;6733;51.044;3.746;2022-08-11T07:43:43;24.50;99.90
13328;DHT22;6733;51.044;3.746;2022-08-11T07:46:14;24.80;99.90
13328;DHT22;6733;51.044;3.746;2022-08-11T07:49:02;25.10;99.90
13328;DHT22;6733;51.044;3.746;2022-08-11T07:51:48;25.20;99.90
13328;DHT22;6733;51.044;3.746;2022-08-11T07:54:34;25.40;99.90
13328;DHT22;6733;51.044;3.746;2022-08-11T07:57:04;25.80;99.90
13328;DHT22;6733;51.044;3.746;2022-08-11T07:59:49;26.10;99.90
13328;DHT22;6733;51.044;3.746;2022-08-11T08:02:34;26.20;99.90
13328;DHT22;6733;51.044;3.746;2022-08-11T08:05:20;26.30;99.90
13328;DHT22;6733;51.044;3.746;2022-08-11T08:08:07;26.50;99.90
13328;DHT22;6733;51.044;3.746;2022-08-11T08:10:53;26.60;99.90
13328;DHT22;6733;51.044;3.746;2022-08-11T08:13:41;26.80;99.90
13328;DHT22;6733;51.044;3.746;2022-08-11T08:16:28;26.90;99.90
13328;DHT22;6733;51.044;3.746;2022-08-11T08:19:16;26.90;99.90
13328;DHT22;6733;51.044;3.746;2022-08-11T08:21:44;27.20;99.90
13328;DHT22;6733;51.044;3.746;2022-08-11T08:24:12;27.30;99.90
13328;DHT22;6733;51.044;3.746;2022-08-11T08:26:41;27.30;99.90
13328;DHT22;6733;51.044;3.746;2022-08-11T08:29:26;27.40;99.90
13328;DHT22;6733;51.044;3.746;2022-08-11T08:32:11;27.70;99.90
13328;DHT22;6733;51.044;3.746;2022-08-11T08:34:38;27.80;99.90
13328;DHT22;6733;51.044;3.746;2022-08-11T08:37:06;27.80;99.90
13328;DHT22;6733;51.044;3.746;2022-08-11T08:39:32;28.00;99.90
13328;DHT22;6733;51.044;3.746;2022-08-11T08:42:03;28.10;99.50
13328;DHT22;6733;51.044;3.746;2022-08-11T08:44:33;28.50;98.90
13328;DHT22;6733;51.044;3.746;2022-08-11T08:47:02;28.50;98.10
13328;DHT22;6733;51.044;3.746;2022-08-11T08:49:33;28.80;97.50
13328;DHT22;6733;51.044;3.746;2022-08-11T08:52:03;28.80;97.20
13328;DHT22;6733;51.044;3.746;2022-08-11T08:54:38;28.90;96.90
13328;DHT22;6733;51.044;3.746;2022-08-11T08:57:08;29.30;96.70
13328;DHT22;6733;51.044;3.746;2022-08-11T08:59:40;29.80;96.00
13328;DHT22;6733;51.044;3.746;2022-08-11T09:02:07;29.30;95.90
13328;DHT22;6733;51.044;3.746;2022-08-11T09:04:39;29.50;95.70
13328;DHT22;6733;51.044;3.746;2022-08-11T09:07:15;29.60;94.70
13328;DHT22;6733;51.044;3.746;2022-08-11T09:09:49;29.90;94.20
13328;DHT22;6733;51.044;3.746;2022-08-11T09:12:17;29.90;94.20
13328;DHT22;6733;51.044;3.746;2022-08-11T09:14:48;30.30;93.70
13328;DHT22;6733;51.044;3.746;2022-08-11T09:20:10;30.20;92.80
13328;DHT22;6733;51.044;3.746;2022-08-11T09:22:39;30.70;92.20
13328;DHT22;6733;51.044;3.746;2022-08-11T09:25:27;30.20;91.60
13328;DHT22;6733;51.044;3.746;2022-08-11T09:28:13;30.70;90.90
13328;DHT22;6733;51.044;3.746;2022-08-11T09:30:41;30.10;90.20
13328;DHT22;6733;51.044;3.746;2022-08-11T09:33:10;30.10;90.50
13328;DHT22;6733;51.044;3.746;2022-08-11T09:35:39;30.40;90.60
13328;DHT22;6733;51.044;3.746;2022-08-11T09:38:12;30.60;90.70
13328;DHT22;6733;51.044;3.746;2022-08-11T09:40:58;30.50;90.50
13328;DHT22;6733;51.044;3.746;2022-08-11T09:43:27;31.00;90.10
13328;DHT22;6733;51.044;3.746;2022-08-11T09:46:13;31.10;89.70
13328;DHT22;6733;51.044;3.746;2022-08-11T09:48:45;31.00;89.40
13328;DHT22;6733;51.044;3.746;2022-08-11T09:51:12;30.60;89.00
13328;DHT22;6733;51.044;3.746;2022-08-11T09:53:41;31.10;87.80
13328;DHT22;6733;51.044;3.746;2022-08-11T09:56:13;31.40;86.10
13328;DHT22;6733;51.044;3.746;2022-08-11T09:59:00;31.30;84.70
13328;DHT22;6733;51.044;3.746;2022-08-11T10:01:36;31.70;84.30
13328;DHT22;6733;51.044;3.746;2022-08-11T10:04:13;31.30;83.10
13328;DHT22;6733;51.044;3.746;2022-08-11T10:06:44;31.20;83.30
13328;DHT22;6733;51.044;3.746;2022-08-11T10:09:51;31.10;84.10
13328;DHT22;6733;51.044;3.746;2022-08-11T10:12:25;31.10;82.80
13328;DHT22;6733;51.044;3.746;2022-08-11T10:14:55;31.00;81.90
13328;DHT22;6733;51.044;3.746;2022-08-11T10:17:53;31.40;80.60
13328;DHT22;6733;51.044;3.746;2022-08-11T10:20:40;31.90;78.50
13328;DHT22;6733;51.044;3.746;2022-08-11T10:23:08;31.80;78.30
13328;DHT22;6733;51.044;3.746;2022-08-11T10:25:54;31.80;77.20
13328;DHT22;6733;51.044;3.746;2022-08-11T10:28:39;31.60;77.50
13328;DHT22;6733;51.044;3.746;2022-08-11T10:31:05;31.50;75.90
13328;DHT22;6733;51.044;3.746;2022-08-11T10:33:50;31.50;75.00
13328;DHT22;6733;51.044;3.746;2022-08-11T10:36:27;31.80;74.90
13328;DHT22;6733;51.044;3.746;2022-08-11T10:38:56;31.60;73.50
13328;DHT22;6733;51.044;3.746;2022-08-11T10:41:23;31.40;73.00
13328;DHT22;6733;51.044;3.746;2022-08-11T10:44:09;31.50;72.40
13328;DHT22;6733;51.044;3.746;2022-08-11T10:46:37;31.90;72.40
13328;DHT22;6733;51.044;3.746;2022-08-11T10:49:24;32.20;72.30
13328;DHT22;6733;51.044;3.746;2022-08-11T10:51:52;32.10;71.90
13328;DHT22;6733;51.044;3.746;2022-08-11T10:54:40;32.10;70.70
13328;DHT22;6733;51.044;3.746;2022-08-11T10:57:27;32.40;69.70
13328;DHT22;6733;51.044;3.746;2022-08-11T11:00:13;32.40;69.30
13328;DHT22;6733;51.044;3.746;2022-08-11T11:02:43;32.40;69.20
13328;DHT22;6733;51.044;3.746;2022-08-11T11:05:23;32.40;69.90
13328;DHT22;6733;51.044;3.746;2022-08-11T11:08:00;32.80;68.70
13328;DHT22;6733;51.044;3.746;2022-08-11T11:10:50;32.50;69.10
13328;DHT22;6733;51.044;3.746;2022-08-11T11:13:18;32.60;69.30
13328;DHT22;6733;51.044;3.746;2022-08-11T11:16:05;32.60;68.50
13328;DHT22;6733;51.044;3.746;2022-08-11T11:18:50;32.80;68.20
13328;DHT22;6733;51.044;3.746;2022-08-11T11:21:18;32.80;67.40
13328;DHT22;6733;51.044;3.746;2022-08-11T11:27:03;32.60;67.80
13328;DHT22;6733;51.044;3.746;2022-08-11T11:32:48;32.20;67.00
13328;DHT22;6733;51.044;3.746;2022-08-11T11:37:54;32.40;67.70
13328;DHT22;6733;51.044;3.746;2022-08-11T11:40:22;32.80;66.40
13328;DHT22;6733;51.044;3.746;2022-08-11T11:42:50;32.90;64.70
13328;DHT22;6733;51.044;3.746;2022-08-11T11:45:19;32.60;65.40
13328;DHT22;6733;51.044;3.746;2022-08-11T11:47:48;32.60;65.70
13328;DHT22;6733;51.044;3.746;2022-08-11T11:50:43;32.60;65.80
13328;DHT22;6733;51.044;3.746;2022-08-11T11:53:09;33.00;65.20
13328;DHT22;6733;51.044;3.746;2022-08-11T11:55:37;33.50;64.10
13328;DHT22;6733;51.044;3.746;2022-08-11T11:58:04;33.30;64.70
13328;DHT22;6733;51.044;3.746;2022-08-11T12:00:51;33.00;64.40
13328;DHT22;6733;51.044;3.746;2022-08-11T12:03:38;33.10;64.20
13328;DHT22;6733;51.044;3.746;2022-08-11T12:06:06;33.10;63.40
13328;DHT22;6733;51.044;3.746;2022-08-11T12:08:33;33.00;63.00
13328;DHT22;6733;51.044;3.746;2022-08-11T12:11:02;33.10;63.60
13328;DHT22;6733;51.044;3.746;2022-08-11T12:13:48;33.40;63.60
13328;DHT22;6733;51.044;3.746;2022-08-11T12:16:21;33.30;62.90
13328;DHT22;6733;51.044;3.746;2022-08-11T12:18:50;33.30;62.70
13328;DHT22;6733;51.044;3.746;2022-08-11T12:21:17;33.10;62.60
13328;DHT22;6733;51.044;3.746;2022-08-11T12:23:46;33.40;62.50
13328;DHT22;6733;51.044;3.746;2022-08-11T12:26:32;33.50;62.00
13328;DHT22;6733;51.044;3.746;2022-08-11T12:29:19;33.50;62.00
13328;DHT22;6733;51.044;3.746;2022-08-11T12:31:47;33.10;62.00
13328;DHT22;6733;51.044;3.746;2022-08-11T12:34:15;32.90;62.50
13328;DHT22;6733;51.044;3.746;2022-08-11T12:36:52;33.30;61.90
13328;DHT22;6733;51.044;3.746;2022-08-11T12:39:22;33.30;61.60
13328;DHT22;6733;51.044;3.746;2022-08-11T12:42:12;33.30;61.90
13328;DHT22;6733;51.044;3.746;2022-08-11T12:45:08;33.20;63.20
13328;DHT22;6733;51.044;3.746;2022-08-11T12:48:04;33.20;61.80
13328;DHT22;6733;51.044;3.746;2022-08-11T12:51:01;33.20;61.00
13328;DHT22;6733;51.044;3.746;2022-08-11T12:53:56;33.30;61.10
13328;DHT22;6733;51.044;3.746;2022-08-11T12:56:26;33.00;60.50
13328;DHT22;6733;51.044;3.746;2022-08-11T12:59:11;33.00;59.80
13328;DHT22;6733;51.044;3.746;2022-08-11T13:01:57;33.10;60.20
13328;DHT22;6733;51.044;3.746;2022-08-11T13:04:42;33.10;60.60
13328;DHT22;6733;51.044;3.746;2022-08-11T13:07:28;32.90;60.50
13328;DHT22;6733;51.044;3.746;2022-08-11T13:09:56;32.90;58.00
13328;DHT22;6733;51.044;3.746;2022-08-11T13:12:23;32.90;58.50
13328;DHT22;6733;51.044;3.746;2022-08-11T13:15:15;33.20;59.00
13328;DHT22;6733;51.044;3.746;2022-08-11T13:17:43;33.20;58.60
13328;DHT22;6733;51.044;3.746;2022-08-11T13:20:12;33.50;59.30
13328;DHT22;6733;51.044;3.746;2022-08-11T13:22:40;33.30;59.00
13328;DHT22;6733;51.044;3.746;2022-08-11T13:25:14;33.20;60.00
13328;DHT22;6733;51.044;3.746;2022-08-11T13:27:42;33.40;60.40
13328;DHT22;6733;51.044;3.746;2022-08-11T13:30:09;33.50;60.80
13328;DHT22;6733;51.044;3.746;2022-08-11T13:32:54;33.90;61.00
13328;DHT22;6733;51.044;3.746;2022-08-11T13:35:21;33.60;60.00
13328;DHT22;6733;51.044;3.746;2022-08-11T13:37:48;33.50;59.90
13328;DHT22;6733;51.044;3.746;2022-08-11T13:40:18;34.00;59.90
13328;DHT22;6733;51.044;3.746;2022-08-11T13:42:45;34.00;59.00
13328;DHT22;6733;51.044;3.746;2022-08-11T13:45:11;33.90;59.10
13328;DHT22;6733;51.044;3.746;2022-08-11T13:47:39;34.40;58.80
13328;DHT22;6733;51.044;3.746;2022-08-11T13:50:06;34.70;57.50
13328;DHT22;6733;51.044;3.746;2022-08-11T13:52:36;34.50;58.70
13328;DHT22;6733;51.044;3.746;2022-08-11T13:55:06;33.80;58.70
13328;DHT22;6733;51.044;3.746;2022-08-11T13:57:33;34.00;59.50
13328;DHT22;6733;51.044;3.746;2022-08-11T14:00:00;34.00;58.80
13328;DHT22;6733;51.044;3.746;2022-08-11T14:02:40;34.10;58.80
13328;DHT22;6733;51.044;3.746;2022-08-11T14:05:19;34.30;58.00
13328;DHT22;6733;51.044;3.746;2022-08-11T14:07:52;34.60;57.30
13328;DHT22;6733;51.044;3.746;2022-08-11T14:10:23;34.70;56.40
13328;DHT22;6733;51.044;3.746;2022-08-11T14:13:01;35.30;55.60
13328;DHT22;6733;51.044;3.746;2022-08-11T14:15:47;35.10;56.60
13328;DHT22;6733;51.044;3.746;2022-08-11T14:18:18;35.20;56.50
13328;DHT22;6733;51.044;3.746;2022-08-11T14:20:49;35.40;55.90
13328;DHT22;6733;51.044;3.746;2022-08-11T14:23:40;35.90;56.00
13328;DHT22;6733;51.044;3.746;2022-08-11T14:26:09;35.80;53.90
13328;DHT22;6733;51.044;3.746;2022-08-11T14:29:00;36.10;53.90
13328;DHT22;6733;51.044;3.746;2022-08-11T14:31:30;36.20;54.50
13328;DHT22;6733;51.044;3.746;2022-08-11T14:34:02;36.40;54.50
13328;DHT22;6733;51.044;3.746;2022-08-11T14:36:39;36.60;54.50
13328;DHT22;6733;51.044;3.746;2022-08-11T14:39:09;37.20;54.10
13328;DHT22;6733;51.044;3.746;2022-08-11T14:41:44;36.70;53.80
13328;DHT22;6733;51.044;3.746;2022-08-11T14:44:49;36.10;54.30
13328;DHT22;6733;51.044;3.746;2022-08-11T14:47:51;36.40;54.30
13328;DHT22;6733;51.044;3.746;2022-08-11T14:50:27;37.00;53.50
13328;DHT22;6733;51.044;3.746;2022-08-11T14:52:54;37.10;52.80
13328;DHT22;6733;51.044;3.746;2022-08-11T14:55:24;37.30;52.70
13328;DHT22;6733;51.044;3.746;2022-08-11T14:58:17;37.10;52.10
13328;DHT22;6733;51.044;3.746;2022-08-11T15:00:45;37.30;53.50
13328;DHT22;6733;51.044;3.746;2022-08-11T15:03:13;37.50;52.90
13328;DHT22;6733;51.044;3.746;2022-08-11T15:08:12;38.20;52.00
13328;DHT22;6733;51.044;3.746;2022-08-11T15:10:39;38.30;51.10
13328;DHT22;6733;51.044;3.746;2022-08-11T15:13:05;38.00;50.90
13328;DHT22;6733;51.044;3.746;2022-08-11T15:15:33;37.80;50.30
13328;DHT22;6733;51.044;3.746;2022-08-11T15:18:20;37.60;50.90
13328;DHT22;6733;51.044;3.746;2022-08-11T15:20:49;38.30;50.80
13328;DHT22;6733;51.044;3.746;2022-08-11T15:23:35;38.30;50.10
13328;DHT22;6733;51.044;3.746;2022-08-11T15:26:39;38.60;50.00
13328;DHT22;6733;51.044;3.746;2022-08-11T15:29:27;37.70;50.60
13328;DHT22;6733;51.044;3.746;2022-08-11T15:32:13;37.90;49.50
13328;DHT22;6733;51.044;3.746;2022-08-11T15:34:57;37.70;49.50
13328;DHT22;6733;51.044;3.746;2022-08-11T15:37:43;38.30;48.40
13328;DHT22;6733;51.044;3.746;2022-08-11T15:40:30;38.60;48.80
13328;DHT22;6733;51.044;3.746;2022-08-11T15:43:26;38.10;49.60
13328;DHT22;6733;51.044;3.746;2022-08-11T15:46:21;38.40;49.10
13328;DHT22;6733;51.044;3.746;2022-08-11T15:48:55;39.40;48.60
13328;DHT22;6733;51.044;3.746;2022-08-11T15:51:33;38.70;49.10
13328;DHT22;6733;51.044;3.746;2022-08-11T15:54:07;38.50;49.10
13328;DHT22;6733;51.044;3.746;2022-08-11T15:56:37;39.10;48.70
13328;DHT22;6733;51.044;3.746;2022-08-11T15:59:06;39.00;48.40
13328;DHT22;6733;51.044;3.746;2022-08-11T16:01:53;39.80;47.40
13328;DHT22;6733;51.044;3.746;2022-08-11T16:04:40;40.40;46.70
13328;DHT22;6733;51.044;3.746;2022-08-11T16:07:10;39.30;47.20
13328;DHT22;6733;51.044;3.746;2022-08-11T16:09:52;40.10;47.10
13328;DHT22;6733;51.044;3.746;2022-08-11T16:12:31;39.80;47.00
13328;DHT22;6733;51.044;3.746;2022-08-11T16:15:01;39.40;47.10
13328;DHT22;6733;51.044;3.746;2022-08-11T16:17:55;39.00;47.10
13328;DHT22;6733;51.044;3.746;2022-08-11T16:20:25;39.10;48.00
13328;DHT22;6733;51.044;3.746;2022-08-11T16:22:53;39.20;47.10
13328;DHT22;6733;51.044;3.746;2022-08-11T16:25:22;39.10;47.50
13328;DHT22;6733;51.044;3.746;2022-08-11T16:27:56;39.30;47.90
13328;DHT22;6733;51.044;3.746;2022-08-11T16:30:34;39.20;47.60
13328;DHT22;6733;51.044;3.746;2022-08-11T16:33:02;38.80;48.00
13328;DHT22;6733;51.044;3.746;2022-08-11T16:35:32;38.70;48.30
13328;DHT22;6733;51.044;3.746;2022-08-11T16:38:20;39.50;47.30
13328;DHT22;6733;51.044;3.746;2022-08-11T16:41:07;39.20;47.70
13328;DHT22;6733;51.044;3.746;2022-08-11T16:43:46;38.80;48.20
13328;DHT22;6733;51.044;3.746;2022-08-11T16:46:32;39.20;48.00
13328;DHT22;6733;51.044;3.746;2022-08-11T16:49:09;39.10;47.40
13328;DHT22;6733;51.044;3.746;2022-08-11T16:51:37;36.00;48.80
13328;DHT22;6733;51.044;3.746;2022-08-11T16:54:03;34.60;50.40
13328;DHT22;6733;51.044;3.746;2022-08-11T16:56:34;34.10;50.60
13328;DHT22;6733;51.044;3.746;2022-08-11T16:59:16;33.70;50.90
13328;DHT22;6733;51.044;3.746;2022-08-11T17:07:20;33.20;52.20
13328;DHT22;6733;51.044;3.746;2022-08-11T17:10:06;32.90;52.50
13328;DHT22;6733;51.044;3.746;2022-08-11T17:12:53;32.70;53.00
13328;DHT22;6733;51.044;3.746;2022-08-11T17:15:40;32.50;53.30
13328;DHT22;6733;51.044;3.746;2022-08-11T17:18:25;32.40;53.70
13328;DHT22;6733;51.044;3.746;2022-08-11T17:21:07;32.30;54.10
13328;DHT22;6733;51.044;3.746;2022-08-11T17:23:40;32.40;54.60
13328;DHT22;6733;51.044;3.746;2022-08-11T17:29:39;32.30;55.30
13328;DHT22;6733;51.044;3.746;2022-08-11T17:32:11;32.20;55.30
13328;DHT22;6733;51.044;3.746;2022-08-11T17:34:58;32.10;55.00
13328;DHT22;6733;51.044;3.746;2022-08-11T17:37:45;31.90;55.60
13328;DHT22;6733;51.044;3.746;2022-08-11T17:40:18;31.80;56.10
13328;DHT22;6733;51.044;3.746;2022-08-11T17:42:46;31.80;55.30
13328;DHT22;6733;51.044;3.746;2022-08-11T17:45:32;31.70;55.50
13328;DHT22;6733;51.044;3.746;2022-08-11T17:48:18;31.60;55.60
13328;DHT22;6733;51.044;3.746;2022-08-11T17:50:52;31.50;55.50
13328;DHT22;6733;51.044;3.746;2022-08-11T17:53:19;31.50;55.50
13328;DHT22;6733;51.044;3.746;2022-08-11T17:56:04;31.40;55.40
13328;DHT22;6733;51.044;3.746;2022-08-11T17:58:51;31.30;55.20
13328;DHT22;6733;51.044;3.746;2022-08-11T18:01:39;31.20;55.30
13328;DHT22;6733;51.044;3.746;2022-08-11T18:04:09;31.20;55.60
13328;DHT22;6733;51.044;3.746;2022-08-11T18:06:36;31.10;55.60
13328;DHT22;6733;51.044;3.746;2022-08-11T18:09:18;31.00;56.00
13328;DHT22;6733;51.044;3.746;2022-08-11T18:12:05;31.00;56.30
13328;DHT22;6733;51.044;3.746;2022-08-11T18:14:53;30.90;56.50
13328;DHT22;6733;51.044;3.746;2022-08-11T18:17:40;30.80;57.00
13328;DHT22;6733;51.044;3.746;2022-08-11T18:20:25;30.70;57.20
13328;DHT22;6733;51.044;3.746;2022-08-11T18:23:15;30.60;57.50
13328;DHT22;6733;51.044;3.746;2022-08-11T18:26:04;30.50;57.60
13328;DHT22;6733;51.044;3.746;2022-08-11T18:28:53;30.40;58.00
13328;DHT22;6733;51.044;3.746;2022-08-11T18:31:47;30.40;58.30
13328;DHT22;6733;51.044;3.746;2022-08-11T18:34:37;30.30;58.30
13328;DHT22;6733;51.044;3.746;2022-08-11T18:37:31;30.20;58.70
13328;DHT22;6733;51.044;3.746;2022-08-11T18:40:23;30.10;58.90
13328;DHT22;6733;51.044;3.746;2022-08-11T18:43:10;30.00;59.30
13328;DHT22;6733;51.044;3.746;2022-08-11T18:46:07;29.90;59.60
13328;DHT22;6733;51.044;3.746;2022-08-11T18:49:02;29.80;59.80
13328;DHT22;6733;51.044;3.746;2022-08-11T18:51:51;29.60;60.00
13328;DHT22;6733;51.044;3.746;2022-08-11T18:54:40;29.60;60.40
13328;DHT22;6733;51.044;3.746;2022-08-11T18:57:26;29.50;60.70
13328;DHT22;6733;51.044;3.746;2022-08-11T19:00:12;29.30;61.10
13328;DHT22;6733;51.044;3.746;2022-08-11T19:02:57;29.20;61.60
13328;DHT22;6733;51.044;3.746;2022-08-11T19:05:45;29.10;62.10
13328;DHT22;6733;51.044;3.746;2022-08-11T19:08:39;29.00;62.50
13328;DHT22;6733;51.044;3.746;2022-08-11T19:11:25;28.90;63.10
13328;DHT22;6733;51.044;3.746;2022-08-11T19:14:13;28.80;63.40
13328;DHT22;6733;51.044;3.746;2022-08-11T19:16:59;28.70;63.50
13328;DHT22;6733;51.044;3.746;2022-08-11T19:19:46;28.60;63.40
13328;DHT22;6733;51.044;3.746;2022-08-11T19:22:32;28.60;63.90
13328;DHT22;6733;51.044;3.746;2022-08-11T19:25:18;28.50;64.20
13328;DHT22;6733;51.044;3.746;2022-08-11T19:28:06;28.30;64.60
13328;DHT22;6733;51.044;3.746;2022-08-11T19:30:52;28.20;64.80
13328;DHT22;6733;51.044;3.746;2022-08-11T19:33:38;28.20;65.10
13328;DHT22;6733;51.044;3.746;2022-08-11T19:36:25;28.10;65.40
13328;DHT22;6733;51.044;3.746;2022-08-11T19:39:12;28.00;65.70
13328;DHT22;6733;51.044;3.746;2022-08-11T19:41:58;27.90;66.00
13328;DHT22;6733;51.044;3.746;2022-08-11T19:44:44;27.80;66.60
13328;DHT22;6733;51.044;3.746;2022-08-11T19:47:30;27.70;66.90
13328;DHT22;6733;51.044;3.746;2022-08-11T19:50:17;27.60;67.10
13328;DHT22;6733;51.044;3.746;2022-08-11T19:53:03;27.50;67.50
13328;DHT22;6733;51.044;3.746;2022-08-11T19:55:50;27.50;67.70
13328;DHT22;6733;51.044;3.746;2022-08-11T19:58:36;27.40;68.00
13328;DHT22;6733;51.044;3.746;2022-08-11T20:01:21;27.30;68.50
13328;DHT22;6733;51.044;3.746;2022-08-11T20:04:06;27.20;68.80
13328;DHT22;6733;51.044;3.746;2022-08-11T20:06:52;27.10;69.30
13328;DHT22;6733;51.044;3.746;2022-08-11T20:09:41;27.10;69.50
13328;DHT22;6733;51.044;3.746;2022-08-11T20:12:27;27.00;69.90
13328;DHT22;6733;51.044;3.746;2022-08-11T20:15:13;26.90;70.20
13328;DHT22;6733;51.044;3.746;2022-08-11T20:18:00;26.80;70.80
13328;DHT22;6733;51.044;3.746;2022-08-11T20:20:52;26.70;71.00
13328;DHT22;6733;51.044;3.746;2022-08-11T20:23:42;26.60;71.40
13328;DHT22;6733;51.044;3.746;2022-08-11T20:26:30;26.50;71.80
13328;DHT22;6733;51.044;3.746;2022-08-11T20:29:16;26.40;72.10
13328;DHT22;6733;51.044;3.746;2022-08-11T20:32:01;26.30;72.60
13328;DHT22;6733;51.044;3.746;2022-08-11T20:34:46;26.20;73.00
13328;DHT22;6733;51.044;3.746;2022-08-11T20:37:31;26.10;74.00
13328;DHT22;6733;51.044;3.746;2022-08-11T20:40:23;26.00;73.60
13328;DHT22;6733;51.044;3.746;2022-08-11T20:43:13;26.00;73.90
13328;DHT22;6733;51.044;3.746;2022-08-11T20:46:05;25.90;74.10